createdAt,value
2018-05-13T00:00:55.612Z,21.43
2018-05-13T00:01:55.358Z,21.36
2018-05-13T00:02:55.685Z,21.32
2018-05-13T00:03:55.700Z,21.4
2018-05-13T00:04:55.711Z,21.32
2018-05-13T00:05:55.473Z,21.39
2018-05-13T00:06:55.779Z,21.32
2018-05-13T00:07:55.804Z,21.33
2018-05-13T00:08:55.800Z,21.37
2018-05-13T00:09:55.829Z,21.36
2018-05-13T00:10:55.926Z,21.37
2018-05-13T00:11:55.621Z,21.35
2018-05-13T00:12:55.635Z,21.29
2018-05-13T00:13:55.639Z,21.33
2018-05-13T00:14:55.680Z,21.32
2018-05-13T00:15:55.983Z,21.25
2018-05-13T00:16:55.451Z,21.25
2018-05-13T00:17:55.765Z,21.27
2018-05-13T00:18:56.043Z,21.24
2018-05-13T00:19:55.789Z,21.2
2018-05-13T00:20:56.100Z,21.21
2018-05-13T00:21:56.112Z,21.21
2018-05-13T00:22:55.865Z,21.14
2018-05-13T00:23:55.884Z,21.18
2018-05-13T00:24:56.192Z,21.18
2018-05-13T00:25:56.204Z,21.15
2018-05-13T00:26:56.251Z,21.21
2018-05-13T00:27:56.277Z,21.12
2018-05-13T00:28:56.280Z,21.12
2018-05-13T00:29:56.300Z,21.14
2018-05-13T00:30:56.319Z,21.09
2018-05-13T00:31:56.348Z,21.03
2018-05-13T00:32:56.101Z,21.02
2018-05-13T00:33:56.120Z,21.05
2018-05-13T00:34:55.895Z,20.97
2018-05-13T00:35:56.449Z,20.97
2018-05-13T00:36:56.204Z,21.05
2018-05-13T00:37:56.492Z,20.95
2018-05-13T00:38:56.539Z,20.92
2018-05-13T00:39:55.993Z,20.95
2018-05-13T00:40:56.282Z,20.95
2018-05-13T00:41:56.581Z,20.92
2018-05-13T00:42:56.608Z,20.95
2018-05-13T00:43:56.642Z,20.95
2018-05-13T00:44:56.384Z,20.92
2018-05-13T00:45:56.682Z,20.85
2018-05-13T00:46:56.419Z,20.85
2018-05-13T00:47:56.707Z,20.81
2018-05-13T00:48:56.804Z,20.88
2018-05-13T00:49:56.780Z,20.84
2018-05-13T00:50:56.776Z,20.8
2018-05-13T00:51:56.797Z,20.8
2018-05-13T00:52:56.822Z,20.84
2018-05-13T00:53:56.874Z,20.84
2018-05-13T00:54:56.878Z,20.77
2018-05-13T00:55:56.925Z,20.75
2018-05-13T00:56:56.914Z,20.78
2018-05-13T00:57:56.964Z,20.72
2018-05-13T00:58:56.423Z,20.75
2018-05-13T00:59:56.986Z,20.78
2018-05-13T01:00:57.024Z,20.75
2018-05-13T01:01:57.044Z,20.72
2018-05-13T01:02:57.232Z,20.74
2018-05-13T01:03:57.106Z,20.74
2018-05-13T01:04:57.099Z,20.62
2018-05-13T01:05:57.139Z,20.66
2018-05-13T01:06:57.174Z,20.6
2018-05-13T01:07:57.185Z,20.66
2018-05-13T01:08:57.204Z,20.62
2018-05-13T01:09:57.253Z,20.6
2018-05-13T01:10:56.991Z,20.62
2018-05-13T01:11:56.738Z,20.56
2018-05-13T01:12:57.301Z,20.56
2018-05-13T01:13:57.318Z,20.62
2018-05-13T01:14:57.334Z,20.6
2018-05-13T01:15:57.347Z,20.58
2018-05-13T01:16:57.119Z,20.59
2018-05-13T01:17:57.131Z,20.48
2018-05-13T01:18:57.459Z,20.52
2018-05-13T01:19:57.455Z,20.44
2018-05-13T01:20:57.484Z,20.43
2018-05-13T01:21:57.256Z,20.5
2018-05-13T01:22:57.514Z,20.43
2018-05-13T01:23:57.550Z,20.47
2018-05-13T01:24:57.571Z,20.44
2018-05-13T01:25:57.339Z,20.47
2018-05-13T01:26:57.621Z,20.4
2018-05-13T01:27:57.637Z,20.48
2018-05-13T01:28:57.671Z,20.4
2018-05-13T01:29:57.705Z,20.36
2018-05-13T01:30:57.692Z,20.52
2018-05-13T01:31:57.750Z,20.47
2018-05-13T01:32:57.763Z,20.37
2018-05-13T01:33:57.304Z,20.44
2018-05-13T01:34:57.541Z,20.28
2018-05-13T01:35:57.623Z,20.37
2018-05-13T01:36:57.862Z,20.32
2018-05-13T01:37:57.884Z,20.39
2018-05-13T01:38:57.877Z,20.34
2018-05-13T01:39:57.656Z,20.34
2018-05-13T01:40:57.652Z,20.31
2018-05-13T01:41:57.423Z,20.28
2018-05-13T01:42:57.711Z,20.32
2018-05-13T01:43:57.734Z,20.25
2018-05-13T01:44:58.032Z,20.26
2018-05-13T01:45:58.062Z,20.34
2018-05-13T01:46:58.083Z,20.26
2018-05-13T01:47:58.097Z,20.24
2018-05-13T01:48:58.135Z,20.26
2018-05-13T01:49:58.152Z,20.28
2018-05-13T01:50:57.904Z,20.29
2018-05-13T01:51:58.188Z,20.29
2018-05-13T01:52:58.201Z,20.26
2018-05-13T01:53:58.244Z,20.19
2018-05-13T01:54:57.989Z,20.16
2018-05-13T01:55:58.299Z,20.19
2018-05-13T01:56:58.285Z,20.18
2018-05-13T01:57:57.797Z,20.13
2018-05-13T01:58:58.344Z,20.18
2018-05-13T01:59:58.370Z,20.13
2018-05-13T02:00:58.387Z,20.1
2018-05-13T02:01:58.133Z,20.14
2018-05-13T02:02:57.904Z,20.1
2018-05-13T02:03:58.180Z,20.02
2018-05-13T02:04:58.206Z,20.13
2018-05-13T02:05:58.487Z,20.02
2018-05-13T02:06:58.268Z,20.09
2018-05-13T02:07:58.549Z,20.06
2018-05-13T02:08:58.578Z,20.02
2018-05-13T02:09:58.650Z,20.07
2018-05-13T02:10:58.609Z,20
2018-05-13T02:11:58.393Z,20.02
2018-05-13T02:12:58.677Z,20.02
2018-05-13T02:13:58.133Z,20
2018-05-13T02:14:58.711Z,19.94
2018-05-13T02:15:58.747Z,20.06
2018-05-13T02:16:58.740Z,19.88
2018-05-13T02:17:58.779Z,19.99
2018-05-13T02:18:58.601Z,19.94
2018-05-13T02:19:58.812Z,19.92
2018-05-13T02:20:58.565Z,19.89
2018-05-13T02:21:58.882Z,19.96
2018-05-13T02:22:58.887Z,19.96
2018-05-13T02:23:58.633Z,19.91
2018-05-13T02:24:58.928Z,19.99
2018-05-13T02:25:58.967Z,19.85
2018-05-13T02:26:58.987Z,19.94
2018-05-13T02:27:59.016Z,19.82
2018-05-13T02:28:59.027Z,19.86
2018-05-13T02:29:58.769Z,19.86
2018-05-13T02:30:59.098Z,19.88
2018-05-13T02:31:58.819Z,19.79
2018-05-13T02:32:59.112Z,19.84
2018-05-13T02:33:59.149Z,19.82
2018-05-13T02:34:59.159Z,19.74
2018-05-13T02:35:59.199Z,19.67
2018-05-13T02:36:58.927Z,19.77
2018-05-13T02:37:58.962Z,19.73
2018-05-13T02:38:58.975Z,19.73
2018-05-13T02:39:58.721Z,19.7
2018-05-13T02:40:58.757Z,19.69
2018-05-13T02:41:59.324Z,19.74
2018-05-13T02:42:59.338Z,19.69
2018-05-13T02:43:59.147Z,19.69
2018-05-13T02:44:59.396Z,19.77
2018-05-13T02:45:59.117Z,19.7
2018-05-13T02:46:58.899Z,19.76
2018-05-13T02:47:59.443Z,19.66
2018-05-13T02:48:59.212Z,19.67
2018-05-13T02:49:59.513Z,19.7
2018-05-13T02:50:59.235Z,19.62
2018-05-13T02:51:59.553Z,19.62
2018-05-13T02:52:59.573Z,19.62
2018-05-13T02:53:59.727Z,19.67
2018-05-13T02:54:59.334Z,19.71
2018-05-13T02:55:59.633Z,19.69
2018-05-13T02:56:59.383Z,19.55
2018-05-13T02:57:59.656Z,19.63
2018-05-13T02:58:59.715Z,19.63
2018-05-13T02:59:59.698Z,19.59
2018-05-13T03:00:59.479Z,19.56
2018-05-13T03:01:59.849Z,19.52
2018-05-13T03:02:59.791Z,19.59
2018-05-13T03:03:59.820Z,19.63
2018-05-13T03:04:59.844Z,19.54
2018-05-13T03:05:59.845Z,19.45
2018-05-13T03:06:59.619Z,19.58
2018-05-13T03:07:59.903Z,19.58
2018-05-13T03:08:59.665Z,19.56
2018-05-13T03:09:59.958Z,19.58
2018-05-13T03:10:59.948Z,19.52
2018-05-13T03:11:59.987Z,19.56
2018-05-13T03:12:59.733Z,19.58
2018-05-13T03:13:59.487Z,19.55
2018-05-13T03:14:59.791Z,19.41
2018-05-13T03:16:00.092Z,19.36
2018-05-13T03:16:59.834Z,19.4
2018-05-13T03:18:00.130Z,19.33
2018-05-13T03:19:00.202Z,19.36
2018-05-13T03:20:00.168Z,19.47
2018-05-13T03:21:00.200Z,19.36
2018-05-13T03:21:59.942Z,19.47
2018-05-13T03:22:59.954Z,19.47
2018-05-13T03:23:59.975Z,19.44
2018-05-13T03:25:00.265Z,19.39
2018-05-13T03:26:00.020Z,19.34
2018-05-13T03:27:00.313Z,19.27
2018-05-13T03:28:00.352Z,19.34
2018-05-13T03:29:00.356Z,19.34
2018-05-13T03:30:00.404Z,19.34
2018-05-13T03:31:00.130Z,19.29
2018-05-13T03:32:00.157Z,19.33
2018-05-13T03:33:00.442Z,19.31
2018-05-13T03:34:00.197Z,19.33
2018-05-13T03:35:00.506Z,19.26
2018-05-13T03:36:00.500Z,19.3
2018-05-13T03:37:00.553Z,19.26
2018-05-13T03:38:00.566Z,19.34
2018-05-13T03:39:00.570Z,19.21
2018-05-13T03:40:00.684Z,19.24
2018-05-13T03:41:00.610Z,19.18
2018-05-13T03:42:00.370Z,19.16
2018-05-13T03:43:00.669Z,19.26
2018-05-13T03:44:00.690Z,19.27
2018-05-13T03:45:00.424Z,19.24
2018-05-13T03:46:00.728Z,19.22
2018-05-13T03:47:00.504Z,19.26
2018-05-13T03:48:00.760Z,19.15
2018-05-13T03:49:00.526Z,19.19
2018-05-13T03:50:00.554Z,19.16
2018-05-13T03:51:00.858Z,19.19
2018-05-13T03:52:00.600Z,19.14
2018-05-13T03:53:00.899Z,19.16
2018-05-13T03:54:00.899Z,19.21
2018-05-13T03:55:00.944Z,19.11
2018-05-13T03:56:00.695Z,19.08
2018-05-13T03:57:00.703Z,19.11
2018-05-13T03:58:01.007Z,19.09
2018-05-13T03:59:00.995Z,19.12
2018-05-13T04:00:01.062Z,19.11
2018-05-13T04:01:01.072Z,19.14
2018-05-13T04:02:00.811Z,19.16
2018-05-13T04:03:01.120Z,19.14
2018-05-13T04:04:00.853Z,19.11
2018-05-13T04:05:01.127Z,19.04
2018-05-13T04:06:01.160Z,19.04
2018-05-13T04:07:01.205Z,19.12
2018-05-13T04:08:01.213Z,19.12
2018-05-13T04:09:01.211Z,19.08
2018-05-13T04:10:01.253Z,19.08
2018-05-13T04:11:01.013Z,19.08
2018-05-13T04:12:01.298Z,19.04
2018-05-13T04:13:00.800Z,19.14
2018-05-13T04:14:01.357Z,19.04
2018-05-13T04:15:01.360Z,19.09
2018-05-13T04:16:01.113Z,19.07
2018-05-13T04:17:01.432Z,19.08
2018-05-13T04:18:01.431Z,19
2018-05-13T04:19:01.481Z,19.07
2018-05-13T04:20:01.516Z,18.99
2018-05-13T04:21:01.222Z,19.15
2018-05-13T04:22:01.236Z,18.99
2018-05-13T04:23:01.252Z,19.11
2018-05-13T04:24:01.552Z,19.12
2018-05-13T04:25:01.581Z,19.07
2018-05-13T04:26:01.598Z,19.02
2018-05-13T04:27:01.334Z,19.08
2018-05-13T04:28:01.140Z,19.24
2018-05-13T04:29:01.673Z,19.12
2018-05-13T04:30:01.694Z,19.12
2018-05-13T04:31:01.725Z,19.18
2018-05-13T04:32:01.711Z,19.18
2018-05-13T04:33:01.483Z,19.14
2018-05-13T04:34:01.772Z,19.16
2018-05-13T04:35:01.786Z,19.21
2018-05-13T04:36:01.831Z,19.19
2018-05-13T04:37:01.846Z,19.14
2018-05-13T04:38:01.864Z,19.16
2018-05-13T04:39:01.617Z,19.22
2018-05-13T04:40:01.629Z,19.21
2018-05-13T04:41:01.654Z,19.26
2018-05-13T04:42:01.943Z,19.19
2018-05-13T04:43:01.951Z,19.16
2018-05-13T04:44:01.791Z,19.24
2018-05-13T04:45:02.011Z,19.31
2018-05-13T04:46:02.034Z,19.3
2018-05-13T04:47:02.081Z,19.3
2018-05-13T04:48:01.521Z,19.29
2018-05-13T04:49:01.547Z,19.24
2018-05-13T04:50:01.861Z,19.3
2018-05-13T04:51:01.599Z,19.27
2018-05-13T04:52:01.885Z,19.3
2018-05-13T04:53:02.172Z,19.31
2018-05-13T04:54:02.197Z,19.27
2018-05-13T04:55:01.982Z,19.34
2018-05-13T04:56:02.014Z,19.3
2018-05-13T04:57:02.003Z,19.34
2018-05-13T04:58:02.037Z,19.31
2018-05-13T04:59:02.312Z,19.3
2018-05-13T05:00:02.332Z,19.37
2018-05-13T05:01:02.095Z,19.31
2018-05-13T05:02:02.373Z,19.26
2018-05-13T05:03:02.388Z,19.29
2018-05-13T05:04:02.408Z,19.39
2018-05-13T05:05:02.440Z,19.41
2018-05-13T05:06:02.455Z,19.33
2018-05-13T05:07:02.495Z,19.31
2018-05-13T05:08:02.508Z,19.41
2018-05-13T05:09:02.566Z,19.37
2018-05-13T05:10:02.554Z,19.34
2018-05-13T05:11:02.587Z,19.4
2018-05-13T05:12:02.605Z,19.37
2018-05-13T05:13:02.636Z,19.41
2018-05-13T05:14:02.648Z,19.44
2018-05-13T05:15:02.391Z,19.45
2018-05-13T05:16:02.700Z,19.48
2018-05-13T05:17:02.720Z,19.41
2018-05-13T05:18:02.483Z,19.39
2018-05-13T05:19:02.765Z,19.39
2018-05-13T05:20:02.771Z,19.47
2018-05-13T05:21:02.532Z,19.34
2018-05-13T05:22:02.794Z,19.4
2018-05-13T05:23:02.557Z,19.34
2018-05-13T05:24:02.601Z,19.54
2018-05-13T05:25:02.897Z,19.47
2018-05-13T05:26:02.670Z,19.59
2018-05-13T05:27:02.931Z,19.45
2018-05-13T05:28:03.124Z,19.48
2018-05-13T05:29:02.965Z,19.44
2018-05-13T05:30:02.740Z,19.44
2018-05-13T05:31:02.747Z,19.41
2018-05-13T05:32:03.046Z,19.52
2018-05-13T05:33:02.781Z,19.56
2018-05-13T05:34:03.078Z,19.58
2018-05-13T05:35:02.817Z,19.55
2018-05-13T05:36:02.883Z,19.64
2018-05-13T05:37:02.857Z,19.59
2018-05-13T05:38:02.904Z,19.58
2018-05-13T05:39:03.197Z,19.55
2018-05-13T05:40:03.193Z,19.63
2018-05-13T05:41:03.225Z,19.59
2018-05-13T05:42:02.743Z,19.58
2018-05-13T05:43:03.277Z,19.73
2018-05-13T05:44:03.311Z,19.56
2018-05-13T05:45:03.312Z,19.63
2018-05-13T05:46:03.096Z,19.7
2018-05-13T05:47:03.364Z,19.58
2018-05-13T05:48:03.145Z,19.55
2018-05-13T05:49:03.406Z,19.67
2018-05-13T05:50:03.438Z,19.67
2018-05-13T05:51:03.446Z,19.71
2018-05-13T05:52:03.225Z,19.7
2018-05-13T05:53:03.202Z,19.71
2018-05-13T05:54:03.512Z,19.7
2018-05-13T05:55:03.535Z,19.74
2018-05-13T05:56:03.556Z,19.77
2018-05-13T05:57:03.588Z,19.79
2018-05-13T05:58:03.338Z,19.73
2018-05-13T05:59:03.623Z,19.79
2018-05-13T06:00:03.398Z,19.82
2018-05-13T06:01:03.409Z,19.86
2018-05-13T06:02:03.689Z,19.82
2018-05-13T06:03:03.457Z,19.86
2018-05-13T06:04:03.451Z,19.85
2018-05-13T06:05:03.748Z,19.94
2018-05-13T06:06:03.765Z,19.91
2018-05-13T06:07:03.806Z,19.95
2018-05-13T06:08:03.302Z,19.96
2018-05-13T06:09:03.312Z,19.95
2018-05-13T06:10:03.864Z,20.03
2018-05-13T06:11:03.882Z,20
2018-05-13T06:12:03.901Z,20.06
2018-05-13T06:13:03.659Z,20.03
2018-05-13T06:14:03.665Z,20.06
2018-05-13T06:15:03.971Z,20.13
2018-05-13T06:16:03.470Z,20.14
2018-05-13T06:17:03.759Z,20.19
2018-05-13T06:18:03.760Z,20.13
2018-05-13T06:19:03.545Z,20.18
2018-05-13T06:20:04.069Z,20.25
2018-05-13T06:21:03.820Z,20.25
2018-05-13T06:22:04.134Z,20.31
2018-05-13T06:23:03.604Z,20.32
2018-05-13T06:24:03.650Z,20.31
2018-05-13T06:25:03.940Z,20.29
2018-05-13T06:26:03.664Z,20.4
2018-05-13T06:27:04.245Z,20.29
2018-05-13T06:28:04.007Z,20.47
2018-05-13T06:29:04.287Z,20.4
2018-05-13T06:30:04.331Z,20.36
2018-05-13T06:31:04.050Z,20.44
2018-05-13T06:32:04.456Z,20.43
2018-05-13T06:33:04.382Z,20.5
2018-05-13T06:34:04.401Z,20.48
2018-05-13T06:35:04.438Z,20.51
2018-05-13T06:36:04.156Z,20.55
2018-05-13T06:37:04.176Z,20.52
2018-05-13T06:38:04.207Z,20.59
2018-05-13T06:39:04.228Z,20.65
2018-05-13T06:40:04.248Z,20.59
2018-05-13T06:41:04.547Z,20.65
2018-05-13T06:42:04.583Z,20.72
2018-05-13T06:43:04.323Z,20.74
2018-05-13T06:44:04.621Z,20.72
2018-05-13T06:45:04.661Z,20.72
2018-05-13T06:46:04.649Z,20.75
2018-05-13T06:47:04.415Z,20.82
2018-05-13T06:48:04.418Z,20.82
2018-05-13T06:49:04.441Z,20.87
2018-05-13T06:50:04.737Z,20.92
2018-05-13T06:51:05.358Z,20.96
2018-05-13T06:52:04.529Z,20.92
2018-05-13T06:53:04.551Z,20.99
2018-05-13T06:54:04.847Z,20.99
2018-05-13T06:55:04.900Z,21
2018-05-13T06:56:04.901Z,21.14
2018-05-13T06:57:04.910Z,21.14
2018-05-13T06:58:04.922Z,21.18
2018-05-13T06:59:04.948Z,21.18
2018-05-13T07:00:04.966Z,21.21
2018-05-13T07:01:04.452Z,21.24
2018-05-13T07:02:04.736Z,21.35
2018-05-13T07:03:05.015Z,21.3
2018-05-13T07:04:04.772Z,21.39
2018-05-13T07:05:04.795Z,21.35
2018-05-13T07:06:04.855Z,21.48
2018-05-13T07:07:05.123Z,21.37
2018-05-13T07:08:04.867Z,21.55
2018-05-13T07:09:05.182Z,21.5
2018-05-13T07:10:05.191Z,21.58
2018-05-13T07:11:05.224Z,21.61
2018-05-13T07:12:04.955Z,21.69
2018-05-13T07:13:04.983Z,21.75
2018-05-13T07:14:05.017Z,21.85
2018-05-13T07:15:05.050Z,21.89
2018-05-13T07:16:05.092Z,21.95
2018-05-13T07:17:05.355Z,22.07
2018-05-13T07:18:05.371Z,22.04
2018-05-13T07:19:05.413Z,22.08
2018-05-13T07:20:05.422Z,22.2
2018-05-13T07:21:05.435Z,22.25
2018-05-13T07:22:05.472Z,22.32
2018-05-13T07:23:05.474Z,22.43
2018-05-13T07:24:05.515Z,22.33
2018-05-13T07:25:05.277Z,22.41
2018-05-13T07:26:05.031Z,22.47
2018-05-13T07:27:05.028Z,22.48
2018-05-13T07:28:05.090Z,22.57
2018-05-13T07:29:05.630Z,22.68
2018-05-13T07:30:05.639Z,22.7
2018-05-13T07:31:05.402Z,22.78
2018-05-13T07:32:05.709Z,22.83
2018-05-13T07:33:05.692Z,22.98
2018-05-13T07:34:05.745Z,23.06
2018-05-13T07:35:05.745Z,23.18
2018-05-13T07:36:05.529Z,23.12
2018-05-13T07:37:05.808Z,23.23
2018-05-13T07:38:05.839Z,23.39
2018-05-13T07:39:05.593Z,23.47
2018-05-13T07:40:05.603Z,23.48
2018-05-13T07:41:05.888Z,23.58
2018-05-13T07:42:05.925Z,23.66
2018-05-13T07:43:05.407Z,23.71
2018-05-13T07:44:05.711Z,23.66
2018-05-13T07:45:05.738Z,23.76
2018-05-13T07:46:05.735Z,23.83
2018-05-13T07:47:05.768Z,23.83
2018-05-13T07:48:06.064Z,23.91
2018-05-13T07:49:05.817Z,24.03
2018-05-13T07:50:05.849Z,24.1
2018-05-13T07:51:06.077Z,24.16
2018-05-13T07:52:05.889Z,24.24
2018-05-13T07:53:06.184Z,24.24
2018-05-13T07:54:05.649Z,24.38
2018-05-13T07:55:06.247Z,24.43
2018-05-13T07:56:05.980Z,24.48
2018-05-13T07:57:06.285Z,24.51
2018-05-13T07:58:06.013Z,24.57
2018-05-13T07:59:06.053Z,24.69
2018-05-13T08:00:06.060Z,24.68
2018-05-13T08:01:06.362Z,24.84
2018-05-13T08:02:06.388Z,24.84
2018-05-13T08:03:06.149Z,24.85
2018-05-13T08:04:06.170Z,24.99
2018-05-13T08:05:06.468Z,25.01
2018-05-13T08:06:06.366Z,25.07
2018-05-13T08:07:06.520Z,25.18
2018-05-13T08:08:06.308Z,25.22
2018-05-13T08:09:06.288Z,25.25
2018-05-13T08:10:06.331Z,25.32
2018-05-13T08:11:06.076Z,25.46
2018-05-13T08:12:06.362Z,25.55
2018-05-13T08:13:06.501Z,25.54
2018-05-13T08:14:06.454Z,25.66
2018-05-13T08:15:06.703Z,25.66
2018-05-13T08:16:06.440Z,25.72
2018-05-13T08:17:06.757Z,25.85
2018-05-13T08:18:06.499Z,25.85
2018-05-13T08:19:06.519Z,25.96
2018-05-13T08:20:06.873Z,26.05
2018-05-13T08:21:06.873Z,26.1
2018-05-13T08:22:06.614Z,26.21
2018-05-13T08:23:06.881Z,26.22
2018-05-13T08:24:06.650Z,26.28
2018-05-13T08:25:06.657Z,26.28
2018-05-13T08:26:06.687Z,26.43
2018-05-13T08:27:06.738Z,26.53
2018-05-13T08:28:06.730Z,26.58
2018-05-13T08:29:06.488Z,26.65
2018-05-13T08:30:06.542Z,26.75
2018-05-13T08:31:06.551Z,26.8
2018-05-13T08:32:07.120Z,26.9
2018-05-13T08:33:07.152Z,26.97
2018-05-13T08:34:07.180Z,27.03
2018-05-13T08:35:07.208Z,27.05
2018-05-13T08:36:06.932Z,27.17
2018-05-13T08:37:06.971Z,27.21
2018-05-13T08:38:07.007Z,27.29
2018-05-13T08:39:07.018Z,27.42
2018-05-13T08:40:07.301Z,27.47
2018-05-13T08:41:07.056Z,27.48
2018-05-13T08:42:07.362Z,27.59
2018-05-13T08:43:07.117Z,27.63
2018-05-13T08:44:07.417Z,27.74
2018-05-13T08:45:07.462Z,27.74
2018-05-13T08:46:07.474Z,27.86
2018-05-13T08:47:06.938Z,27.93
2018-05-13T08:48:07.534Z,28.02
2018-05-13T08:49:07.539Z,28.05
2018-05-13T08:50:07.310Z,28.19
2018-05-13T08:51:07.335Z,28.19
2018-05-13T08:52:07.628Z,28.26
2018-05-13T08:53:07.382Z,28.3
2018-05-13T08:54:07.990Z,28.35
2018-05-13T08:55:07.426Z,28.32
2018-05-13T08:56:07.721Z,28.38
2018-05-13T08:57:07.753Z,28.45
2018-05-13T08:58:07.794Z,28.57
2018-05-13T08:59:07.526Z,28.52
2018-05-13T09:00:07.832Z,28.66
2018-05-13T09:01:07.582Z,28.81
2018-05-13T09:02:07.619Z,28.78
2018-05-13T09:03:07.896Z,28.88
2018-05-13T09:04:07.666Z,28.86
2018-05-13T09:05:07.690Z,28.88
2018-05-13T09:06:07.978Z,28.96
2018-05-13T09:07:08.030Z,29.01
2018-05-13T09:08:08.047Z,29.05
2018-05-13T09:09:08.063Z,29.17
2018-05-13T09:10:08.088Z,29.32
2018-05-13T09:11:07.839Z,29.39
2018-05-13T09:12:07.887Z,29.5
2018-05-13T09:13:08.147Z,29.51
2018-05-13T09:14:08.183Z,29.53
2018-05-13T09:15:08.213Z,29.66
2018-05-13T09:16:07.975Z,29.69
2018-05-13T09:17:08.264Z,29.78
2018-05-13T09:18:08.010Z,29.87
2018-05-13T09:19:08.359Z,29.93
2018-05-13T09:20:08.093Z,29.95
2018-05-13T09:21:08.393Z,30.05
2018-05-13T09:22:08.146Z,30.02
2018-05-13T09:23:08.445Z,30.21
2018-05-13T09:24:08.487Z,30.19
2018-05-13T09:25:08.487Z,30.25
2018-05-13T09:26:08.437Z,30.34
2018-05-13T09:27:08.270Z,30.43
2018-05-13T09:28:08.300Z,30.53
2018-05-13T09:29:08.593Z,30.66
2018-05-13T09:30:08.358Z,30.72
2018-05-13T09:31:08.398Z,30.73
2018-05-13T09:32:08.416Z,30.78
2018-05-13T09:33:09.079Z,30.85
2018-05-13T09:34:08.204Z,30.92
2018-05-13T09:35:08.742Z,30.97
2018-05-13T09:36:08.783Z,31.03
2018-05-13T09:37:08.529Z,31.03
2018-05-13T09:38:08.565Z,31.15
2018-05-13T09:39:08.596Z,31.15
2018-05-13T09:40:08.371Z,31.25
2018-05-13T09:41:08.933Z,31.36
2018-05-13T09:42:08.950Z,31.34
2018-05-13T09:43:08.721Z,31.36
2018-05-13T09:44:08.752Z,31.33
2018-05-13T09:45:08.486Z,31.4
2018-05-13T09:46:09.043Z,31.52
2018-05-13T09:47:09.100Z,31.51
2018-05-13T09:48:08.837Z,31.58
2018-05-13T09:49:08.888Z,31.65
2018-05-13T09:50:08.902Z,31.62
2018-05-13T09:51:09.196Z,31.71
2018-05-13T09:52:08.966Z,31.74
2018-05-13T09:53:08.717Z,31.85
2018-05-13T09:54:08.998Z,31.92
2018-05-13T09:55:09.294Z,31.87
2018-05-13T09:56:09.325Z,31.99
2018-05-13T09:57:09.377Z,31.97
2018-05-13T09:58:09.129Z,32.08
2018-05-13T09:59:08.893Z,32.14
2018-05-13T10:00:09.469Z,32.12
2018-05-13T10:01:09.509Z,32.21
2018-05-13T10:02:09.241Z,32.26
2018-05-13T10:03:09.274Z,32.34
2018-05-13T10:04:09.683Z,32.31
2018-05-13T10:05:09.044Z,32.36
2018-05-13T10:06:09.343Z,32.4
2018-05-13T10:07:09.658Z,32.45
2018-05-13T10:08:09.416Z,32.51
2018-05-13T10:09:09.714Z,32.58
2018-05-13T10:10:09.737Z,32.55
2018-05-13T10:11:09.794Z,32.53
2018-05-13T10:12:09.801Z,32.64
2018-05-13T10:13:09.805Z,32.63
2018-05-13T10:14:09.842Z,32.7
2018-05-13T10:15:09.622Z,32.82
2018-05-13T10:16:09.920Z,32.8
2018-05-13T10:17:09.941Z,32.86
2018-05-13T10:18:09.982Z,32.93
2018-05-13T10:19:09.714Z,32.97
2018-05-13T10:20:10.057Z,33.07
2018-05-13T10:21:09.791Z,33
2018-05-13T10:22:09.564Z,33.02
2018-05-13T10:23:09.850Z,33.05
2018-05-13T10:24:10.163Z,33.15
2018-05-13T10:25:10.179Z,33.22
2018-05-13T10:26:10.313Z,33.23
2018-05-13T10:27:10.275Z,33.31
2018-05-13T10:28:10.270Z,33.32
2018-05-13T10:29:10.301Z,33.36
2018-05-13T10:30:10.304Z,33.46
2018-05-13T10:31:10.349Z,33.28
2018-05-13T10:32:10.103Z,33.39
2018-05-13T10:33:10.418Z,33.45
2018-05-13T10:34:10.423Z,33.52
2018-05-13T10:35:10.202Z,33.5
2018-05-13T10:36:10.509Z,33.49
2018-05-13T10:37:09.987Z,33.55
2018-05-13T10:38:10.644Z,33.53
2018-05-13T10:39:10.362Z,33.53
2018-05-13T10:40:10.357Z,33.57
2018-05-13T10:41:10.661Z,33.71
2018-05-13T10:42:10.685Z,33.64
2018-05-13T10:43:10.458Z,33.69
2018-05-13T10:44:10.204Z,33.74
2018-05-13T10:45:10.243Z,33.81
2018-05-13T10:46:10.531Z,33.81
2018-05-13T10:47:10.770Z,33.81
2018-05-13T10:48:10.612Z,33.86
2018-05-13T10:49:10.875Z,33.95
2018-05-13T10:50:10.390Z,33.96
2018-05-13T10:51:10.704Z,34.13
2018-05-13T10:52:10.719Z,34.06
2018-05-13T10:53:10.748Z,34.2
2018-05-13T10:54:11.047Z,34.18
2018-05-13T10:55:10.807Z,34.24
2018-05-13T10:56:11.093Z,34.29
2018-05-13T10:57:11.148Z,34.24
2018-05-13T10:58:10.898Z,34.38
2018-05-13T10:59:11.220Z,34.39
2018-05-13T11:00:11.228Z,34.48
2018-05-13T11:01:11.257Z,34.48
2018-05-13T11:02:11.300Z,34.52
2018-05-13T11:03:11.045Z,34.5
2018-05-13T11:04:11.372Z,34.64
2018-05-13T11:05:11.382Z,34.7
2018-05-13T11:06:11.144Z,34.74
2018-05-13T11:07:11.173Z,34.73
2018-05-13T11:08:11.484Z,34.85
2018-05-13T11:09:11.512Z,34.8
2018-05-13T11:10:11.371Z,34.86
2018-05-13T11:11:11.300Z,34.95
2018-05-13T11:12:11.601Z,34.93
2018-05-13T11:13:11.352Z,35.1
2018-05-13T11:14:11.396Z,35.07
2018-05-13T11:15:11.701Z,35.12
2018-05-13T11:16:11.442Z,35.11
2018-05-13T11:17:11.880Z,35.07
2018-05-13T11:18:11.518Z,35.12
2018-05-13T11:19:11.549Z,35.1
2018-05-13T11:20:12.026Z,35.11
2018-05-13T11:21:11.613Z,35.22
2018-05-13T11:22:11.901Z,35.26
2018-05-13T11:23:11.932Z,35.26
2018-05-13T11:24:11.976Z,35.29
2018-05-13T11:25:12.004Z,35.41
2018-05-13T11:26:11.776Z,35.45
2018-05-13T11:27:11.792Z,35.48
2018-05-13T11:28:12.107Z,35.52
2018-05-13T11:29:11.865Z,35.56
2018-05-13T11:30:11.903Z,35.63
2018-05-13T11:31:12.188Z,35.7
2018-05-13T11:32:12.306Z,35.64
2018-05-13T11:33:12.002Z,35.64
2018-05-13T11:34:12.296Z,35.66
2018-05-13T11:35:12.058Z,35.64
2018-05-13T11:36:12.347Z,35.79
2018-05-13T11:37:12.412Z,35.73
2018-05-13T11:38:12.414Z,35.78
2018-05-13T11:39:12.173Z,35.8
2018-05-13T11:40:12.480Z,35.79
2018-05-13T11:41:12.509Z,35.88
2018-05-13T11:42:12.284Z,35.83
2018-05-13T11:43:12.600Z,35.95
2018-05-13T11:44:12.634Z,35.93
2018-05-13T11:45:12.651Z,35.98
2018-05-13T11:46:12.668Z,35.92
2018-05-13T11:47:12.715Z,36.01
2018-05-13T11:48:12.492Z,35.9
2018-05-13T11:49:12.508Z,35.95
2018-05-13T11:50:12.336Z,36.05
2018-05-13T11:51:12.823Z,36.02
2018-05-13T11:52:12.879Z,36.2
2018-05-13T11:53:12.907Z,36.14
2018-05-13T11:54:12.683Z,36.17
2018-05-13T11:55:12.979Z,36.17
2018-05-13T11:56:13.019Z,36.25
2018-05-13T11:57:13.023Z,36.24
2018-05-13T11:58:13.070Z,36.27
2018-05-13T11:59:12.829Z,36.24
2018-05-13T12:00:12.594Z,36.31
2018-05-13T12:01:13.186Z,36.27
2018-05-13T12:02:13.386Z,36.2
2018-05-13T12:03:12.968Z,36.21
2018-05-13T12:04:13.012Z,36.27
2018-05-13T12:05:13.313Z,36.35
2018-05-13T12:06:13.339Z,36.36
2018-05-13T12:07:13.370Z,36.36
2018-05-13T12:08:13.141Z,36.45
2018-05-13T12:09:13.427Z,36.43
2018-05-13T12:10:13.186Z,36.46
2018-05-13T12:11:13.499Z,36.54
2018-05-13T12:12:13.565Z,36.51
2018-05-13T12:13:13.295Z,36.54
2018-05-13T12:14:13.324Z,36.51
2018-05-13T12:15:13.921Z,36.52
2018-05-13T12:16:13.375Z,36.61
2018-05-13T12:17:13.422Z,36.52
2018-05-13T12:18:13.709Z,36.51
2018-05-13T12:19:13.777Z,36.46
2018-05-13T12:20:13.813Z,36.54
2018-05-13T12:21:13.919Z,36.51
2018-05-13T12:22:13.861Z,36.46
2018-05-13T12:23:13.908Z,36.51
2018-05-13T12:24:13.907Z,36.57
2018-05-13T12:25:13.699Z,36.59
2018-05-13T12:26:14.075Z,36.58
2018-05-13T12:27:14.114Z,36.59
2018-05-13T12:28:14.059Z,36.61
2018-05-13T12:29:14.116Z,36.61
2018-05-13T12:30:13.863Z,36.62
2018-05-13T12:31:13.888Z,36.61
2018-05-13T12:32:13.649Z,36.68
2018-05-13T12:33:14.229Z,36.74
2018-05-13T12:34:14.245Z,36.72
2018-05-13T12:35:14.014Z,36.68
2018-05-13T12:36:14.331Z,36.73
2018-05-13T12:37:14.076Z,36.77
2018-05-13T12:38:14.377Z,36.72
2018-05-13T12:39:14.170Z,36.8
2018-05-13T12:40:14.470Z,36.83
2018-05-13T12:41:14.217Z,36.86
2018-05-13T12:42:14.240Z,36.93
2018-05-13T12:43:14.574Z,36.95
2018-05-13T12:44:14.325Z,36.95
2018-05-13T12:45:14.359Z,36.95
2018-05-13T12:46:14.662Z,36.96
2018-05-13T12:47:14.140Z,36.96
2018-05-13T12:48:14.728Z,36.99
2018-05-13T12:49:14.781Z,37.02
2018-05-13T12:50:14.701Z,37.1
2018-05-13T12:51:14.848Z,37.08
2018-05-13T12:52:14.869Z,37.03
2018-05-13T12:53:14.627Z,36.99
2018-05-13T12:54:14.670Z,37.01
2018-05-13T12:55:14.961Z,36.99
2018-05-13T12:56:15.233Z,37.07